createdAt,value
2018-08-24T00:02:45.343Z,18.32
2018-08-24T00:07:42.712Z,18.35
2018-08-24T00:12:40.099Z,18.24
2018-08-24T00:17:37.504Z,18.42
2018-08-24T00:22:35.884Z,18.51
2018-08-24T00:27:34.212Z,18.39
2018-08-24T00:32:31.612Z,18.50
2018-08-24T00:37:29.605Z,18.57
2018-08-24T00:42:27.239Z,18.55
2018-08-24T00:47:24.630Z,18.58
2018-08-24T00:52:22.071Z,18.68
2018-08-24T00:57:19.460Z,18.77
2018-08-24T01:02:16.842Z,18.84
2018-08-24T01:07:14.776Z,19.52
2018-08-24T01:12:15.415Z,19.42
2018-08-24T01:17:18.734Z,19.41
2018-08-24T01:22:16.372Z,19.40
2018-08-24T01:27:13.753Z,19.38
2018-08-24T01:32:13.587Z,19.36
2018-08-24T01:37:11.066Z,19.42
2018-08-24T01:42:09.960Z,19.23
2018-08-24T01:47:07.343Z,18.50
2018-08-24T01:52:04.791Z,18.34
2018-08-24T01:57:02.175Z,18.35
2018-08-24T02:01:59.580Z,18.36
2018-08-24T02:06:56.999Z,18.31
2018-08-24T02:11:54.406Z,18.45
2018-08-24T02:16:51.830Z,18.68
2018-08-24T02:21:54.859Z,18.56
2018-08-24T02:26:52.356Z,18.57
2018-08-24T02:31:50.523Z,18.45
2018-08-24T02:36:47.927Z,18.34
2018-08-24T02:41:45.702Z,18.24
2018-08-24T02:46:43.759Z,18.03
2018-08-24T02:51:41.195Z,18.02
2018-08-24T02:56:38.591Z,17.85
2018-08-24T03:01:35.971Z,17.78
2018-08-24T03:06:33.346Z,17.81
2018-08-24T03:11:30.719Z,17.79
2018-08-24T03:16:28.231Z,17.76
2018-08-24T03:21:25.631Z,17.73
2018-08-24T03:26:23.635Z,17.43
2018-08-24T03:31:21.023Z,17.49
2018-08-24T03:36:18.411Z,17.46
2018-08-24T03:41:15.804Z,17.43
2018-08-24T03:46:13.199Z,17.54
2018-08-24T03:51:10.667Z,17.58
2018-08-24T03:56:08.080Z,17.46
2018-08-24T04:01:05.500Z,17.29
2018-08-24T04:06:02.976Z,17.25
2018-08-24T04:11:00.411Z,17.16
2018-08-24T04:15:58.475Z,17.11
2018-08-24T04:20:56.326Z,17.03
2018-08-24T04:25:53.715Z,17.09
2018-08-24T04:30:51.127Z,17.17
2018-08-24T04:35:48.523Z,17.11
2018-08-24T04:40:45.951Z,17.03
2018-08-24T04:45:43.331Z,17.05
2018-08-24T04:50:40.723Z,17.09
2018-08-24T04:55:38.256Z,17.13
2018-08-24T05:00:35.658Z,17.09
2018-08-24T05:05:33.027Z,17.09
2018-08-24T05:10:30.449Z,17.33
2018-08-24T05:15:27.948Z,17.22
2018-08-24T05:20:25.346Z,17.25
2018-08-24T05:25:22.759Z,17.33
2018-08-24T05:30:20.152Z,17.28
2018-08-24T05:35:17.616Z,17.10
2018-08-24T05:40:15.016Z,17.06
2018-08-24T05:45:12.413Z,17.00
2018-08-24T05:50:10.243Z,16.96
2018-08-24T05:55:07.703Z,17.01
2018-08-24T06:00:05.175Z,16.87
2018-08-24T06:05:02.635Z,16.89
2018-08-24T06:10:00.037Z,16.88
2018-08-24T06:14:57.436Z,17.05
2018-08-24T06:19:55.897Z,17.19
2018-08-24T06:24:54.535Z,17.15
2018-08-24T06:29:52.087Z,17.29
2018-08-24T06:34:49.539Z,17.56
2018-08-24T06:39:46.959Z,17.43
2018-08-24T06:44:44.397Z,17.52
2018-08-24T06:49:42.828Z,17.63
2018-08-24T06:54:40.249Z,17.60
2018-08-24T06:59:37.924Z,17.46
2018-08-24T07:04:35.315Z,17.44
2018-08-24T07:09:32.915Z,17.60
2018-08-24T07:14:31.034Z,17.77
2018-08-24T07:19:32.345Z,17.59
2018-08-24T07:24:29.831Z,17.65
2018-08-24T07:29:27.275Z,18.02
2018-08-24T07:34:24.693Z,17.93
2018-08-24T07:39:22.083Z,17.80
2018-08-24T07:44:19.732Z,17.65
2018-08-24T07:49:23.110Z,17.90
2018-08-24T07:54:20.591Z,17.97
2018-08-24T07:59:18.018Z,17.93
2018-08-24T08:04:15.453Z,18.01
2018-08-24T08:09:12.858Z,18.06
2018-08-24T08:14:10.999Z,18.47
2018-08-24T08:19:10.605Z,18.50
2018-08-24T08:24:08.902Z,18.22
2018-08-24T08:29:06.353Z,18.19
2018-08-24T08:34:04.825Z,18.13
2018-08-24T08:39:02.341Z,18.14
2018-08-24T08:43:59.774Z,18.12
2018-08-24T08:48:57.949Z,18.02
2018-08-24T08:53:55.372Z,17.93
2018-08-24T08:58:52.781Z,17.86
2018-08-24T09:03:50.199Z,17.93
2018-08-24T09:08:48.762Z,18.07
2018-08-24T09:13:46.859Z,17.92
2018-08-24T09:18:51.031Z,17.87
2018-08-24T09:23:54.811Z,17.90
2018-08-24T09:28:53.503Z,17.89
2018-08-24T09:33:50.966Z,18.07
2018-08-24T09:38:50.530Z,18.11
2018-08-24T09:43:53.641Z,18.28
2018-08-24T09:48:56.778Z,18.53
2018-08-24T09:53:59.744Z,18.76
2018-08-24T09:58:57.428Z,18.85
2018-08-24T10:04:00.440Z,18.60
2018-08-24T10:08:57.972Z,19.55
2018-08-24T10:13:55.424Z,19.50
2018-08-24T10:18:52.872Z,19.05
2018-08-24T10:23:50.326Z,18.66
2018-08-24T10:28:47.784Z,19.23
2018-08-24T10:33:45.234Z,19.42
2018-08-24T10:38:42.651Z,19.28
2018-08-24T10:43:40.183Z,20.24
2018-08-24T10:48:37.613Z,20.23
2018-08-24T10:53:35.042Z,19.36
2018-08-24T10:58:32.515Z,20.18
2018-08-24T11:03:29.919Z,19.16
2018-08-24T11:08:27.361Z,18.92
2018-08-24T11:13:25.075Z,20.28
2018-08-24T11:18:22.542Z,20.75
2018-08-24T11:23:19.946Z,20.69
2018-08-24T11:28:17.331Z,21.23
2018-08-24T11:33:14.828Z,20.65
2018-08-24T11:38:12.895Z,20.21
2018-08-24T11:43:10.292Z,20.76
2018-08-24T11:48:07.700Z,20.93
2018-08-24T11:53:06.822Z,21.08
2018-08-24T11:58:04.372Z,21.37
2018-08-24T12:03:02.704Z,21.31
2018-08-24T12:08:00.540Z,21.77
2018-08-24T12:12:58.250Z,21.89
2018-08-24T12:17:56.298Z,21.12
2018-08-24T12:22:53.775Z,21.31
2018-08-24T12:27:52.128Z,20.40
2018-08-24T12:32:49.535Z,21.66
2018-08-24T12:37:47.649Z,21.98
2018-08-24T12:42:45.226Z,21.77
2018-08-24T12:47:42.621Z,21.82
2018-08-24T12:52:41.007Z,21.28
2018-08-24T12:57:38.539Z,21.54
2018-08-24T13:02:35.910Z,20.37
2018-08-24T13:07:33.336Z,20.27
2018-08-24T13:12:30.726Z,20.30
2018-08-24T13:17:28.142Z,21.28
2018-08-24T13:22:25.579Z,20.14
2018-08-24T13:27:23.671Z,20.13
2018-08-24T13:32:21.071Z,21.08
2018-08-24T13:37:18.477Z,20.88
2018-08-24T13:42:15.879Z,21.30
2018-08-24T13:47:13.255Z,20.75
2018-08-24T13:52:10.646Z,20.31
2018-08-24T13:57:08.031Z,20.27
2018-08-24T14:02:05.466Z,20.35
2018-08-24T14:07:02.891Z,20.38
2018-08-24T14:12:00.295Z,20.28
2018-08-24T14:16:57.718Z,20.46
2018-08-24T14:21:55.119Z,20.84
2018-08-24T14:26:52.511Z,20.78
2018-08-24T14:31:49.986Z,20.60
2018-08-24T14:36:47.396Z,20.48
2018-08-24T14:41:44.799Z,20.62
2018-08-24T14:46:42.876Z,20.79
2018-08-24T14:51:40.316Z,21.03
2018-08-24T14:56:38.619Z,20.80
2018-08-24T15:01:36.009Z,21.05
2018-08-24T15:06:33.443Z,21.00
2018-08-24T15:11:30.843Z,20.57
2018-08-24T15:16:28.268Z,20.42
2018-08-24T15:21:25.661Z,20.45
2018-08-24T15:26:23.052Z,20.32
2018-08-24T15:31:21.404Z,20.29
2018-08-24T15:36:18.802Z,20.22
2018-08-24T15:41:16.222Z,20.58
2018-08-24T15:46:13.683Z,20.19
2018-08-24T15:51:11.025Z,20.19
2018-08-24T15:56:08.416Z,20.03
2018-08-24T16:01:05.829Z,19.90
2018-08-24T16:06:03.274Z,19.95
2018-08-24T16:11:00.716Z,19.65
2018-08-24T16:15:58.112Z,19.55
2018-08-24T16:20:55.510Z,19.50
2018-08-24T16:25:53.101Z,19.53
2018-08-24T16:30:50.496Z,19.32
2018-08-24T16:35:48.755Z,19.22
2018-08-24T16:40:46.199Z,19.23
2018-08-24T16:45:44.680Z,19.15
2018-08-24T16:50:42.111Z,19.02
2018-08-24T16:55:39.560Z,18.99
2018-08-24T17:00:36.965Z,18.96
2018-08-24T17:05:34.448Z,18.82
2018-08-24T17:10:31.858Z,18.72
2018-08-24T17:15:29.308Z,18.64
2018-08-24T17:20:26.697Z,18.65
2018-08-24T17:25:25.076Z,18.46
2018-08-24T17:30:22.490Z,18.41
2018-08-24T17:35:20.432Z,18.41
2018-08-24T17:40:17.809Z,18.35
2018-08-24T17:45:15.855Z,18.35
2018-08-24T17:50:14.302Z,18.23
2018-08-24T17:55:11.690Z,18.21
2018-08-24T18:00:09.171Z,18.08
2018-08-24T18:05:06.671Z,17.94
2018-08-24T18:10:04.709Z,17.87
2018-08-24T18:15:02.368Z,17.83
2018-08-24T18:20:00.617Z,17.75
2018-08-24T18:24:58.287Z,17.77
2018-08-24T18:29:56.366Z,17.71
2018-08-24T18:34:53.773Z,17.63
2018-08-24T18:39:51.188Z,17.63
2018-08-24T18:44:48.675Z,17.59
2018-08-24T18:49:52.581Z,17.58
2018-08-24T18:54:49.980Z,17.54
2018-08-24T18:59:47.351Z,17.55
2018-08-24T19:04:44.760Z,17.53
2018-08-24T19:09:42.503Z,17.49
2018-08-24T19:14:39.891Z,17.44
2018-08-24T19:19:49.428Z,17.38
2018-08-24T19:24:46.825Z,17.35
2018-08-24T19:29:49.911Z,17.28
2018-08-24T19:34:47.303Z,17.23
2018-08-24T19:39:50.032Z,17.18
2018-08-24T19:44:47.427Z,17.14
2018-08-24T19:49:51.695Z,17.02
2018-08-24T19:54:49.083Z,16.98
2018-08-24T19:59:47.407Z,16.86
2018-08-24T20:04:44.823Z,16.81
2018-08-24T20:09:47.792Z,16.69
2018-08-24T20:14:51.468Z,16.60
2018-08-24T20:19:51.793Z,16.61
2018-08-24T20:24:49.190Z,16.53
2018-08-24T20:29:46.567Z,16.53
2018-08-24T20:34:43.948Z,16.50
2018-08-24T20:39:42.287Z,16.43
2018-08-24T20:44:39.655Z,16.31
2018-08-24T20:49:41.272Z,16.25
2018-08-24T20:54:38.724Z,16.35
2018-08-24T20:59:36.095Z,16.30
2018-08-24T21:04:33.612Z,16.43
2018-08-24T21:09:31.003Z,16.33
2018-08-24T21:14:28.442Z,16.38
2018-08-24T21:19:29.413Z,16.42
2018-08-24T21:24:26.904Z,16.12
2018-08-24T21:29:24.287Z,16.20
2018-08-24T21:34:21.666Z,16.35
2018-08-24T21:39:19.050Z,16.19
2018-08-24T21:44:16.419Z,16.28
2018-08-24T21:49:20.312Z,16.14
2018-08-24T21:54:17.766Z,15.96
2018-08-24T21:59:15.143Z,15.93
2018-08-24T22:04:13.794Z,15.86
2018-08-24T22:09:11.231Z,15.73
2018-08-24T22:14:08.611Z,15.19
2018-08-24T22:19:09.645Z,14.95
2018-08-24T22:24:07.064Z,14.79
2018-08-24T22:29:04.791Z,14.70
2018-08-24T22:34:02.366Z,14.62
2018-08-24T22:38:59.730Z,14.60
2018-08-24T22:43:57.123Z,14.67
2018-08-24T22:48:54.499Z,14.62
2018-08-24T22:53:51.874Z,14.53
2018-08-24T22:58:50.047Z,14.56
2018-08-24T23:03:47.423Z,14.40
2018-08-24T23:08:44.811Z,14.30
2018-08-24T23:13:42.175Z,14.25
2018-08-24T23:18:39.539Z,14.05
2018-08-24T23:23:36.940Z,13.99
2018-08-24T23:28:34.307Z,13.91
2018-08-24T23:33:31.676Z,13.74
2018-08-24T23:38:29.091Z,13.63
2018-08-24T23:43:26.464Z,13.83
2018-08-24T23:48:23.920Z,13.53
2018-08-24T23:53:21.301Z,13.43
2018-08-24T23:58:18.687Z,13.30
